sensor_id;sensor_type;location;lat;lon;timestamp;pressure;altitude;pressure_sealevel;temperature;humidity
44297;BME280;51842;47.450;8.654;2023-05-23T00:00:55;95365.69;;;14.00;100.00
44297;BME280;51842;47.450;8.654;2023-05-23T00:03:22;95361.72;;;13.98;100.00
44297;BME280;51842;47.450;8.654;2023-05-23T00:05:48;95362.06;;;13.91;100.00
44297;BME280;51842;47.450;8.654;2023-05-23T00:08:14;95365.69;;;13.81;100.00
44297;BME280;51842;47.450;8.654;2023-05-23T00:10:41;95364.03;;;13.85;100.00
44297;BME280;51842;47.450;8.654;2023-05-23T00:13:06;95369.25;;;13.77;100.00
44297;BME280;51842;47.450;8.654;2023-05-23T00:15:34;95363.31;;;13.80;100.00
44297;BME280;51842;47.450;8.654;2023-05-23T00:18:03;95367.50;;;13.67;100.00
44297;BME280;51842;47.450;8.654;2023-05-23T00:20:29;95359.75;;;13.65;100.00
44297;BME280;51842;47.450;8.654;2023-05-23T00:22:55;95360.06;;;13.64;100.00
44297;BME280;51842;47.450;8.654;2023-05-23T00:25:24;95357.38;;;13.64;100.00
44297;BME280;51842;47.450;8.654;2023-05-23T00:27:50;95359.31;;;13.58;100.00
44297;BME280;51842;47.450;8.654;2023-05-23T00:30:16;95364.69;;;13.58;100.00
44297;BME280;51842;47.450;8.654;2023-05-23T00:32:42;95360.69;;;13.56;100.00
44297;BME280;51842;47.450;8.654;2023-05-23T00:35:08;95358.09;;;13.51;100.00
44297;BME280;51842;47.450;8.654;2023-05-23T00:37:34;95360.03;;;13.45;100.00
44297;BME280;51842;47.450;8.654;2023-05-23T00:40:00;95363.00;;;13.43;100.00
44297;BME280;51842;47.450;8.654;2023-05-23T00:42:25;95359.59;;;13.38;100.00
44297;BME280;51842;47.450;8.654;2023-05-23T00:44:51;95366.59;;;13.34;100.00
44297;BME280;51842;47.450;8.654;2023-05-23T00:47:17;95365.22;;;13.36;100.00
44297;BME280;51842;47.450;8.654;2023-05-23T00:49:43;95367.59;;;13.38;100.00
44297;BME280;51842;47.450;8.654;2023-05-23T00:52:10;95358.09;;;13.32;100.00
44297;BME280;51842;47.450;8.654;2023-05-23T00:54:38;95365.00;;;13.33;100.00
44297;BME280;51842;47.450;8.654;2023-05-23T00:57:04;95365.28;;;13.31;100.00
44297;BME280;51842;47.450;8.654;2023-05-23T00:59:31;95369.94;;;13.26;100.00
44297;BME280;51842;47.450;8.654;2023-05-23T01:02:00;95365.16;;;13.17;100.00
44297;BME280;51842;47.450;8.654;2023-05-23T01:04:25;95358.50;;;13.15;100.00
44297;BME280;51842;47.450;8.654;2023-05-23T01:06:55;95363.34;;;13.13;100.00
44297;BME280;51842;47.450;8.654;2023-05-23T01:09:25;95365.53;;;13.11;100.00
44297;BME280;51842;47.450;8.654;2023-05-23T01:15:09;95353.22;;;13.10;100.00
44297;BME280;51842;47.450;8.654;2023-05-23T01:20:44;95358.63;;;13.05;100.00
44297;BME280;51842;47.450;8.654;2023-05-23T01:29:25;95366.22;;;12.98;100.00
44297;BME280;51842;47.450;8.654;2023-05-23T01:31:56;95364.66;;;12.91;100.00
44297;BME280;51842;47.450;8.654;2023-05-23T01:34:22;95362.56;;;12.88;100.00
44297;BME280;51842;47.450;8.654;2023-05-23T01:36:55;95360.22;;;12.82;100.00
44297;BME280;51842;47.450;8.654;2023-05-23T01:39:22;95358.63;;;12.81;100.00
44297;BME280;51842;47.450;8.654;2023-05-23T01:41:49;95368.25;;;12.82;100.00
44297;BME280;51842;47.450;8.654;2023-05-23T01:44:16;95369.03;;;12.82;100.00
44297;BME280;51842;47.450;8.654;2023-05-23T01:46:43;95375.09;;;12.88;100.00
44297;BME280;51842;47.450;8.654;2023-05-23T01:49:13;95384.19;;;12.92;100.00
44297;BME280;51842;47.450;8.654;2023-05-23T01:51:40;95378.31;;;12.90;100.00
44297;BME280;51842;47.450;8.654;2023-05-23T01:54:07;95376.19;;;12.87;100.00
44297;BME280;51842;47.450;8.654;2023-05-23T01:56:33;95373.91;;;12.75;100.00
44297;BME280;51842;47.450;8.654;2023-05-23T01:58:59;95370.19;;;12.76;100.00
44297;BME280;51842;47.450;8.654;2023-05-23T02:01:26;95365.97;;;12.70;100.00
44297;BME280;51842;47.450;8.654;2023-05-23T02:03:52;95368.91;;;12.68;100.00
44297;BME280;51842;47.450;8.654;2023-05-23T02:06:18;95371.88;;;12.67;100.00
44297;BME280;51842;47.450;8.654;2023-05-23T02:08:43;95368.91;;;12.68;100.00
44297;BME280;51842;47.450;8.654;2023-05-23T02:11:10;95374.53;;;12.67;100.00
44297;BME280;51842;47.450;8.654;2023-05-23T02:13:36;95368.66;;;12.65;100.00
44297;BME280;51842;47.450;8.654;2023-05-23T02:16:01;95372.94;;;12.66;100.00
44297;BME280;51842;47.450;8.654;2023-05-23T02:18:28;95374.03;;;12.65;100.00
44297;BME280;51842;47.450;8.654;2023-05-23T02:20:54;95373.78;;;12.61;100.00
44297;BME280;51842;47.450;8.654;2023-05-23T02:23:21;95373.78;;;12.61;100.00
44297;BME280;51842;47.450;8.654;2023-05-23T02:25:47;95376.78;;;12.55;100.00
44297;BME280;51842;47.450;8.654;2023-05-23T02:28:13;95374.69;;;12.52;100.00
44297;BME280;51842;47.450;8.654;2023-05-23T02:30:39;95378.16;;;12.52;100.00
44297;BME280;51842;47.450;8.654;2023-05-23T02:33:06;95378.69;;;12.54;100.00
44297;BME280;51842;47.450;8.654;2023-05-23T02:35:33;95380.56;;;12.54;100.00
44297;BME280;51842;47.450;8.654;2023-05-23T02:37:59;95376.81;;;12.49;100.00
44297;BME280;51842;47.450;8.654;2023-05-23T02:40:25;95377.91;;;12.48;100.00
44297;BME280;51842;47.450;8.654;2023-05-23T02:42:51;95387.03;;;12.47;100.00
44297;BME280;51842;47.450;8.654;2023-05-23T02:45:17;95388.84;;;12.52;100.00
44297;BME280;51842;47.450;8.654;2023-05-23T02:47:43;95382.41;;;12.53;100.00
44297;BME280;51842;47.450;8.654;2023-05-23T02:50:09;95385.06;;;12.53;100.00
44297;BME280;51842;47.450;8.654;2023-05-23T02:52:35;95385.59;;;12.55;100.00
44297;BME280;51842;47.450;8.654;2023-05-23T02:55:01;95392.53;;;12.56;100.00
44297;BME280;51842;47.450;8.654;2023-05-23T02:57:27;95392.25;;;12.58;100.00
44297;BME280;51842;47.450;8.654;2023-05-23T02:59:52;95392.25;;;12.58;100.00
44297;BME280;51842;47.450;8.654;2023-05-23T03:02:18;95388.25;;;12.60;100.00
44297;BME280;51842;47.450;8.654;2023-05-23T03:04:44;95391.41;;;12.62;100.00
44297;BME280;51842;47.450;8.654;2023-05-23T03:07:09;95392.44;;;12.66;100.00
44297;BME280;51842;47.450;8.654;2023-05-23T03:09:36;95385.16;;;12.72;100.00
44297;BME280;51842;47.450;8.654;2023-05-23T03:12:03;95383.25;;;12.78;100.00
44297;BME280;51842;47.450;8.654;2023-05-23T03:14:29;95389.34;;;12.83;100.00
44297;BME280;51842;47.450;8.654;2023-05-23T03:16:55;95393.31;;;12.86;100.00
44297;BME280;51842;47.450;8.654;2023-05-23T03:19:20;95387.91;;;12.91;100.00
44297;BME280;51842;47.450;8.654;2023-05-23T03:21:46;95394.00;;;12.96;100.00
44297;BME280;51842;47.450;8.654;2023-05-23T03:24:12;95394.75;;;13.02;100.00
44297;BME280;51842;47.450;8.654;2023-05-23T03:26:38;95396.59;;;13.07;100.00
44297;BME280;51842;47.450;8.654;2023-05-23T03:29:03;95405.63;;;13.11;100.00
44297;BME280;51842;47.450;8.654;2023-05-23T03:31:29;95399.72;;;13.14;100.00
44297;BME280;51842;47.450;8.654;2023-05-23T03:33:55;95399.41;;;13.15;100.00
44297;BME280;51842;47.450;8.654;2023-05-23T03:36:20;95406.38;;;13.16;100.00
44297;BME280;51842;47.450;8.654;2023-05-23T03:38:51;95400.50;;;13.14;100.00
44297;BME280;51842;47.450;8.654;2023-05-23T03:41:17;95407.66;;;13.19;100.00
44297;BME280;51842;47.450;8.654;2023-05-23T03:43:43;95407.66;;;13.19;100.00
44297;BME280;51842;47.450;8.654;2023-05-23T03:46:09;95406.03;;;13.23;100.00
44297;BME280;51842;47.450;8.654;2023-05-23T03:48:35;95411.09;;;13.25;100.00
44297;BME280;51842;47.450;8.654;2023-05-23T03:51:01;95411.63;;;13.27;100.00
44297;BME280;51842;47.450;8.654;2023-05-23T03:53:27;95419.88;;;13.30;100.00
44297;BME280;51842;47.450;8.654;2023-05-23T03:55:53;95416.63;;;13.33;100.00
44297;BME280;51842;47.450;8.654;2023-05-23T03:58:19;95422.19;;;13.37;100.00
44297;BME280;51842;47.450;8.654;2023-05-23T04:00:45;95430.75;;;13.39;100.00
44297;BME280;51842;47.450;8.654;2023-05-23T04:03:11;95430.66;;;13.44;100.00
44297;BME280;51842;47.450;8.654;2023-05-23T04:05:43;95424.75;;;13.47;100.00
44297;BME280;51842;47.450;8.654;2023-05-23T04:08:09;95431.63;;;13.53;100.00
44297;BME280;51842;47.450;8.654;2023-05-23T04:10:35;95429.69;;;13.59;100.00
44297;BME280;51842;47.450;8.654;2023-05-23T04:13:01;95428.84;;;13.63;100.00
44297;BME280;51842;47.450;8.654;2023-05-23T04:15:26;95434.13;;;13.69;100.00
44297;BME280;51842;47.450;8.654;2023-05-23T04:17:53;95431.91;;;13.76;100.00
44297;BME280;51842;47.450;8.654;2023-05-23T04:20:18;95437.69;;;13.83;100.00
44297;BME280;51842;47.450;8.654;2023-05-23T04:22:44;95437.34;;;13.89;100.00
44297;BME280;51842;47.450;8.654;2023-05-23T04:25:10;95433.50;;;13.96;100.00
44297;BME280;51842;47.450;8.654;2023-05-23T04:27:37;95435.50;;;14.04;100.00
44297;BME280;51842;47.450;8.654;2023-05-23T04:30:06;95437.84;;;14.10;100.00
44297;BME280;51842;47.450;8.654;2023-05-23T04:32:34;95435.59;;;14.18;100.00
44297;BME280;51842;47.450;8.654;2023-05-23T04:34:59;95441.59;;;14.28;100.00
44297;BME280;51842;47.450;8.654;2023-05-23T04:37:27;95446.56;;;14.35;100.00
44297;BME280;51842;47.450;8.654;2023-05-23T04:39:53;95444.63;;;14.41;100.00
44297;BME280;51842;47.450;8.654;2023-05-23T04:42:19;95439.41;;;14.49;100.00
44297;BME280;51842;47.450;8.654;2023-05-23T04:44:49;95437.75;;;14.53;100.00
44297;BME280;51842;47.450;8.654;2023-05-23T04:47:16;95441.34;;;14.63;100.00
44297;BME280;51842;47.450;8.654;2023-05-23T04:49:43;95442.59;;;14.70;100.00
44297;BME280;51842;47.450;8.654;2023-05-23T04:52:09;95442.22;;;14.77;100.00
44297;BME280;51842;47.450;8.654;2023-05-23T04:54:35;95452.25;;;14.85;100.00
44297;BME280;51842;47.450;8.654;2023-05-23T04:57:02;95448.38;;;14.91;100.00
44297;BME280;51842;47.450;8.654;2023-05-23T04:59:28;95456.06;;;14.98;100.00
44297;BME280;51842;47.450;8.654;2023-05-23T05:01:53;95448.13;;;15.07;100.00
44297;BME280;51842;47.450;8.654;2023-05-23T05:04:19;95450.91;;;15.15;100.00
44297;BME280;51842;47.450;8.654;2023-05-23T05:06:45;95454.00;;;15.22;100.00
44297;BME280;51842;47.450;8.654;2023-05-23T05:09:13;95453.13;;;15.27;100.00
44297;BME280;51842;47.450;8.654;2023-05-23T05:11:39;95460.78;;;15.34;100.00
44297;BME280;51842;47.450;8.654;2023-05-23T05:14:04;95448.53;;;15.41;100.00
44297;BME280;51842;47.450;8.654;2023-05-23T05:16:30;95453.13;;;15.55;100.00
44297;BME280;51842;47.450;8.654;2023-05-23T05:18:56;95455.09;;;15.63;100.00
44297;BME280;51842;47.450;8.654;2023-05-23T05:21:22;95458.09;;;15.75;100.00
44297;BME280;51842;47.450;8.654;2023-05-23T05:23:47;95452.94;;;15.79;100.00
44297;BME280;51842;47.450;8.654;2023-05-23T05:26:13;95453.34;;;15.86;100.00
44297;BME280;51842;47.450;8.654;2023-05-23T05:28:39;95453.91;;;15.96;100.00
44297;BME280;51842;47.450;8.654;2023-05-23T05:31:05;95448.31;;;16.07;100.00
44297;BME280;51842;47.450;8.654;2023-05-23T05:33:31;95451.06;;;16.15;100.00
44297;BME280;51842;47.450;8.654;2023-05-23T05:36:05;95446.94;;;16.32;100.00
44297;BME280;51842;47.450;8.654;2023-05-23T05:38:31;95450.66;;;16.45;100.00
44297;BME280;51842;47.450;8.654;2023-05-23T05:40:57;95455.69;;;16.60;100.00
44297;BME280;51842;47.450;8.654;2023-05-23T05:43:25;95453.75;;;16.74;98.73
44297;BME280;51842;47.450;8.654;2023-05-23T05:45:50;95456.38;;;16.88;95.95
44297;BME280;51842;47.450;8.654;2023-05-23T05:48:16;95453.94;;;17.00;93.39
44297;BME280;51842;47.450;8.654;2023-05-23T05:50:42;95464.47;;;17.19;92.82
44297;BME280;51842;47.450;8.654;2023-05-23T05:53:10;95464.25;;;17.38;92.16
44297;BME280;51842;47.450;8.654;2023-05-23T05:55:37;95460.03;;;17.54;88.87
44297;BME280;51842;47.450;8.654;2023-05-23T05:58:03;95467.13;;;17.82;88.56
44297;BME280;51842;47.450;8.654;2023-05-23T06:00:29;95459.88;;;18.08;85.78
44297;BME280;51842;47.450;8.654;2023-05-23T06:02:55;95462.78;;;18.46;85.26
44297;BME280;51842;47.450;8.654;2023-05-23T06:05:24;95473.41;;;18.78;82.23
44297;BME280;51842;47.450;8.654;2023-05-23T06:07:51;95476.69;;;19.09;81.77
44297;BME280;51842;47.450;8.654;2023-05-23T06:10:17;95472.66;;;19.33;80.09
44297;BME280;51842;47.450;8.654;2023-05-23T06:12:43;95480.44;;;19.43;77.70
44297;BME280;51842;47.450;8.654;2023-05-23T06:15:10;95477.53;;;19.48;76.54
44297;BME280;51842;47.450;8.654;2023-05-23T06:17:37;95484.31;;;19.63;76.30
44297;BME280;51842;47.450;8.654;2023-05-23T06:20:04;95484.06;;;19.85;75.00
44297;BME280;51842;47.450;8.654;2023-05-23T06:22:30;95474.63;;;20.00;74.07
44297;BME280;51842;47.450;8.654;2023-05-23T06:24:56;95475.72;;;20.29;73.29
44297;BME280;51842;47.450;8.654;2023-05-23T06:27:21;95473.97;;;20.54;70.39
44297;BME280;51842;47.450;8.654;2023-05-23T06:29:47;95467.06;;;20.77;69.65
44297;BME280;51842;47.450;8.654;2023-05-23T06:32:13;95492.38;;;20.82;69.17
44297;BME280;51842;47.450;8.654;2023-05-23T06:34:38;95488.09;;;20.93;68.95
44297;BME280;51842;47.450;8.654;2023-05-23T06:37:04;95486.81;;;20.78;67.86
44297;BME280;51842;47.450;8.654;2023-05-23T06:39:30;95487.72;;;21.03;67.54
44297;BME280;51842;47.450;8.654;2023-05-23T06:41:55;95488.94;;;21.06;66.59
44297;BME280;51842;47.450;8.654;2023-05-23T06:44:21;95494.59;;;21.00;66.06
44297;BME280;51842;47.450;8.654;2023-05-23T06:46:47;95490.66;;;21.10;65.97
44297;BME280;51842;47.450;8.654;2023-05-23T06:49:14;95495.00;;;21.02;66.40
44297;BME280;51842;47.450;8.654;2023-05-23T06:51:40;95489.94;;;21.01;66.73
44297;BME280;51842;47.450;8.654;2023-05-23T06:54:06;95486.09;;;21.02;66.38
44297;BME280;51842;47.450;8.654;2023-05-23T06:56:31;95484.50;;;21.22;66.70
44297;BME280;51842;47.450;8.654;2023-05-23T06:58:57;95483.59;;;21.30;65.11
44297;BME280;51842;47.450;8.654;2023-05-23T07:01:23;95478.13;;;21.51;65.51
44297;BME280;51842;47.450;8.654;2023-05-23T07:03:49;95478.59;;;21.78;64.09
44297;BME280;51842;47.450;8.654;2023-05-23T07:06:15;95477.50;;;21.91;63.96
44297;BME280;51842;47.450;8.654;2023-05-23T07:08:41;95480.63;;;21.81;62.74
44297;BME280;51842;47.450;8.654;2023-05-23T07:11:06;95486.84;;;21.93;62.47
44297;BME280;51842;47.450;8.654;2023-05-23T07:13:32;95492.94;;;22.03;62.70
44297;BME280;51842;47.450;8.654;2023-05-23T07:15:58;95496.34;;;22.00;61.89
44297;BME280;51842;47.450;8.654;2023-05-23T07:18:24;95494.19;;;21.93;62.10
44297;BME280;51842;47.450;8.654;2023-05-23T07:20:50;95500.75;;;21.92;61.85
44297;BME280;51842;47.450;8.654;2023-05-23T07:23:16;95497.84;;;21.97;62.52
44297;BME280;51842;47.450;8.654;2023-05-23T07:25:42;95513.97;;;21.81;62.34
44297;BME280;51842;47.450;8.654;2023-05-23T07:28:09;95513.69;;;21.49;63.68
44297;BME280;51842;47.450;8.654;2023-05-23T07:30:35;95524.47;;;21.25;64.27
44297;BME280;51842;47.450;8.654;2023-05-23T07:33:01;95524.25;;;20.97;65.44
44297;BME280;51842;47.450;8.654;2023-05-23T07:35:26;95518.03;;;20.75;66.48
44297;BME280;51842;47.450;8.654;2023-05-23T07:37:53;95526.41;;;20.62;67.14
44297;BME280;51842;47.450;8.654;2023-05-23T07:40:20;95527.59;;;20.52;67.28
44297;BME280;51842;47.450;8.654;2023-05-23T07:42:47;95533.75;;;20.31;68.43
44297;BME280;51842;47.450;8.654;2023-05-23T07:45:13;95533.34;;;20.21;69.05
44297;BME280;51842;47.450;8.654;2023-05-23T07:47:40;95534.22;;;20.04;70.11
44297;BME280;51842;47.450;8.654;2023-05-23T07:50:07;95533.75;;;19.72;70.85
44297;BME280;51842;47.450;8.654;2023-05-23T07:52:33;95533.91;;;19.58;72.11
44297;BME280;51842;47.450;8.654;2023-05-23T07:54:59;95532.22;;;19.36;72.83
44297;BME280;51842;47.450;8.654;2023-05-23T07:57:25;95536.03;;;19.27;73.07
44297;BME280;51842;47.450;8.654;2023-05-23T07:59:52;95542.41;;;19.31;73.59
44297;BME280;51842;47.450;8.654;2023-05-23T08:02:19;95548.31;;;19.24;73.64
44297;BME280;51842;47.450;8.654;2023-05-23T08:04:46;95546.88;;;19.18;74.59
44297;BME280;51842;47.450;8.654;2023-05-23T08:07:12;95544.81;;;19.15;74.51
44297;BME280;51842;47.450;8.654;2023-05-23T08:09:38;95537.66;;;19.10;74.54
44297;BME280;51842;47.450;8.654;2023-05-23T08:12:08;95534.47;;;19.08;74.86
44297;BME280;51842;47.450;8.654;2023-05-23T08:14:35;95540.50;;;19.14;74.59
44297;BME280;51842;47.450;8.654;2023-05-23T08:17:01;95539.72;;;19.13;74.09
44297;BME280;51842;47.450;8.654;2023-05-23T08:19:27;95538.44;;;19.11;74.38
44297;BME280;51842;47.450;8.654;2023-05-23T08:21:53;95533.38;;;19.09;74.63
44297;BME280;51842;47.450;8.654;2023-05-23T08:24:20;95536.53;;;19.11;74.70
44297;BME280;51842;47.450;8.654;2023-05-23T08:26:46;95537.19;;;19.08;74.09
44297;BME280;51842;47.450;8.654;2023-05-23T08:29:13;95536.72;;;18.98;74.54
44297;BME280;51842;47.450;8.654;2023-05-23T08:31:39;95537.84;;;18.97;74.90
44297;BME280;51842;47.450;8.654;2023-05-23T08:34:05;95534.81;;;19.24;74.20
44297;BME280;51842;47.450;8.654;2023-05-23T08:36:31;95540.44;;;19.49;73.30
44297;BME280;51842;47.450;8.654;2023-05-23T08:39:01;95542.78;;;19.68;72.49
44297;BME280;51842;47.450;8.654;2023-05-23T08:41:29;95548.47;;;19.83;70.42
44297;BME280;51842;47.450;8.654;2023-05-23T08:43:56;95538.56;;;19.96;69.88
44297;BME280;51842;47.450;8.654;2023-05-23T08:46:23;95545.16;;;20.16;69.49
44297;BME280;51842;47.450;8.654;2023-05-23T08:48:54;95535.47;;;20.36;68.44
44297;BME280;51842;47.450;8.654;2023-05-23T08:51:31;95541.53;;;20.63;66.72
44297;BME280;51842;47.450;8.654;2023-05-23T08:54:01;95544.41;;;20.99;64.88
44297;BME280;51842;47.450;8.654;2023-05-23T08:56:27;95542.19;;;21.35;63.86
44297;BME280;51842;47.450;8.654;2023-05-23T08:58:54;95538.91;;;21.62;62.77
44297;BME280;51842;47.450;8.654;2023-05-23T09:01:22;95539.63;;;21.96;61.42
44297;BME280;51842;47.450;8.654;2023-05-23T09:03:48;95531.19;;;22.22;59.90
44297;BME280;51842;47.450;8.654;2023-05-23T09:06:15;95532.91;;;22.67;58.82
44297;BME280;51842;47.450;8.654;2023-05-23T09:08:43;95529.81;;;22.81;56.02
44297;BME280;51842;47.450;8.654;2023-05-23T09:11:10;95535.75;;;23.11;54.60
44297;BME280;51842;47.450;8.654;2023-05-23T09:13:38;95539.13;;;23.64;54.31
44297;BME280;51842;47.450;8.654;2023-05-23T09:16:09;95531.00;;;23.80;51.44
44297;BME280;51842;47.450;8.654;2023-05-23T09:18:41;95530.75;;;23.85;52.76
44297;BME280;51842;47.450;8.654;2023-05-23T09:21:09;95522.53;;;24.33;50.22
44297;BME280;51842;47.450;8.654;2023-05-23T09:23:37;95518.69;;;24.69;49.78
44297;BME280;51842;47.450;8.654;2023-05-23T09:26:07;95525.69;;;25.25;48.01
44297;BME280;51842;47.450;8.654;2023-05-23T09:28:34;95523.31;;;25.66;46.78
44297;BME280;51842;47.450;8.654;2023-05-23T09:31:03;95525.94;;;25.81;46.58
44297;BME280;51842;47.450;8.654;2023-05-23T09:33:49;95522.03;;;25.59;44.52
44297;BME280;51842;47.450;8.654;2023-05-23T09:36:18;95522.09;;;25.63;44.99
44297;BME280;51842;47.450;8.654;2023-05-23T09:38:46;95518.53;;;25.82;46.31
44297;BME280;51842;47.450;8.654;2023-05-23T09:41:13;95513.78;;;25.98;45.65
44297;BME280;51842;47.450;8.654;2023-05-23T09:43:49;95514.19;;;26.00;45.12
44297;BME280;51842;47.450;8.654;2023-05-23T09:46:15;95516.75;;;26.16;44.80
44297;BME280;51842;47.450;8.654;2023-05-23T09:48:49;95510.50;;;26.65;43.10
44297;BME280;51842;47.450;8.654;2023-05-23T09:51:19;95508.41;;;27.15;43.05
44297;BME280;51842;47.450;8.654;2023-05-23T09:53:49;95517.09;;;27.62;41.00
44297;BME280;51842;47.450;8.654;2023-05-23T09:56:19;95508.13;;;28.06;40.16
44297;BME280;51842;47.450;8.654;2023-05-23T09:58:49;95518.34;;;28.09;40.47
44297;BME280;51842;47.450;8.654;2023-05-23T10:01:16;95514.38;;;27.62;39.82
44297;BME280;51842;47.450;8.654;2023-05-23T10:03:48;95508.03;;;27.17;41.75
44297;BME280;51842;47.450;8.654;2023-05-23T10:06:26;95505.38;;;27.24;41.12
44297;BME280;51842;47.450;8.654;2023-05-23T10:09:02;95514.56;;;27.42;43.72
44297;BME280;51842;47.450;8.654;2023-05-23T10:14:05;95503.66;;;28.35;39.47
44297;BME280;51842;47.450;8.654;2023-05-23T10:17:11;95500.28;;;28.56;38.62
44297;BME280;51842;47.450;8.654;2023-05-23T10:19:59;95502.13;;;29.07;36.90
44297;BME280;51842;47.450;8.654;2023-05-23T10:22:27;95500.41;;;28.77;36.72
44297;BME280;51842;47.450;8.654;2023-05-23T10:24:53;95489.91;;;28.94;36.96
44297;BME280;51842;47.450;8.654;2023-05-23T10:27:20;95487.22;;;29.01;36.99
44297;BME280;51842;47.450;8.654;2023-05-23T10:29:46;95486.84;;;29.02;36.86
44297;BME280;51842;47.450;8.654;2023-05-23T10:32:14;95482.94;;;29.11;38.86
44297;BME280;51842;47.450;8.654;2023-05-23T10:41:00;95487.75;;;28.55;37.40
44297;BME280;51842;47.450;8.654;2023-05-23T10:43:50;95489.28;;;27.94;38.22
44297;BME280;51842;47.450;8.654;2023-05-23T10:46:20;95481.81;;;27.90;39.46
44297;BME280;51842;47.450;8.654;2023-05-23T10:48:46;95483.63;;;27.76;38.59
44297;BME280;51842;47.450;8.654;2023-05-23T10:51:15;95476.78;;;27.96;39.07
44297;BME280;51842;47.450;8.654;2023-05-23T10:53:44;95482.25;;;27.96;38.51
44297;BME280;51842;47.450;8.654;2023-05-23T10:56:20;95474.81;;;27.93;39.47
44297;BME280;51842;47.450;8.654;2023-05-23T10:58:56;95479.38;;;27.78;39.52
44297;BME280;51842;47.450;8.654;2023-05-23T11:01:23;95467.84;;;28.03;37.98
44297;BME280;51842;47.450;8.654;2023-05-23T11:03:51;95474.03;;;28.55;36.74
44297;BME280;51842;47.450;8.654;2023-05-23T11:06:43;95465.78;;;29.39;35.75
44297;BME280;51842;47.450;8.654;2023-05-23T11:09:18;95463.13;;;30.00;34.70
44297;BME280;51842;47.450;8.654;2023-05-23T11:12:15;95456.03;;;30.38;34.55
44297;BME280;51842;47.450;8.654;2023-05-23T11:19:38;95440.69;;;30.48;32.34
44297;BME280;51842;47.450;8.654;2023-05-23T11:22:08;95450.88;;;30.54;32.72
44297;BME280;51842;47.450;8.654;2023-05-23T11:24:54;95446.50;;;30.71;32.57
44297;BME280;51842;47.450;8.654;2023-05-23T11:27:29;95446.53;;;30.78;32.12
44297;BME280;51842;47.450;8.654;2023-05-23T11:30:05;95444.16;;;30.84;32.40
44297;BME280;51842;47.450;8.654;2023-05-23T11:32:32;95443.72;;;30.89;31.72
44297;BME280;51842;47.450;8.654;2023-05-23T11:35:06;95446.75;;;31.13;31.61
44297;BME280;51842;47.450;8.654;2023-05-23T11:37:33;95445.50;;;31.28;31.40
44297;BME280;51842;47.450;8.654;2023-05-23T11:42:54;95441.53;;;31.36;31.64
44297;BME280;51842;47.450;8.654;2023-05-23T11:45:26;95442.72;;;31.35;32.19
44297;BME280;51842;47.450;8.654;2023-05-23T11:47:52;95438.50;;;31.16;31.97
44297;BME280;51842;47.450;8.654;2023-05-23T11:50:18;95431.53;;;30.86;32.58
44297;BME280;51842;47.450;8.654;2023-05-23T11:52:49;95434.06;;;30.27;33.73
44297;BME280;51842;47.450;8.654;2023-05-23T11:55:20;95433.31;;;29.62;35.36
44297;BME280;51842;47.450;8.654;2023-05-23T11:57:47;95436.41;;;29.43;35.35
44297;BME280;51842;47.450;8.654;2023-05-23T12:00:14;95436.38;;;29.28;36.07
44297;BME280;51842;47.450;8.654;2023-05-23T12:02:42;95439.00;;;28.93;36.04
44297;BME280;51842;47.450;8.654;2023-05-23T12:05:10;95438.81;;;28.46;36.82
44297;BME280;51842;47.450;8.654;2023-05-23T12:07:46;95437.50;;;28.33;37.49
44297;BME280;51842;47.450;8.654;2023-05-23T12:10:14;95434.25;;;28.09;38.02
44297;BME280;51842;47.450;8.654;2023-05-23T12:12:46;95434.94;;;27.51;41.48
44297;BME280;51842;47.450;8.654;2023-05-23T12:15:13;95434.31;;;27.24;46.28
44297;BME280;51842;47.450;8.654;2023-05-23T12:17:44;95438.56;;;26.88;50.30
44297;BME280;51842;47.450;8.654;2023-05-23T12:20:11;95429.56;;;26.53;56.32
44297;BME280;51842;47.450;8.654;2023-05-23T12:22:37;95432.69;;;25.76;50.07
44297;BME280;51842;47.450;8.654;2023-05-23T12:25:08;95432.13;;;24.98;54.71
44297;BME280;51842;47.450;8.654;2023-05-23T12:27:36;95438.63;;;24.19;53.98
44297;BME280;51842;47.450;8.654;2023-05-23T12:30:28;95441.88;;;23.73;56.13
44297;BME280;51842;47.450;8.654;2023-05-23T12:32:53;95436.91;;;22.87;56.70
44297;BME280;51842;47.450;8.654;2023-05-23T12:35:19;95437.19;;;22.42;56.07
44297;BME280;51842;47.450;8.654;2023-05-23T12:37:46;95435.78;;;22.20;55.92
44297;BME280;51842;47.450;8.654;2023-05-23T12:42:55;95431.84;;;21.68;56.52
44297;BME280;51842;47.450;8.654;2023-05-23T12:45:31;95432.53;;;21.53;55.81
44297;BME280;51842;47.450;8.654;2023-05-23T12:47:58;95436.47;;;21.43;54.76
44297;BME280;51842;47.450;8.654;2023-05-23T12:50:24;95443.28;;;21.16;55.04
44297;BME280;51842;47.450;8.654;2023-05-23T12:52:50;95447.22;;;21.07;54.94
44297;BME280;51842;47.450;8.654;2023-05-23T12:55:17;95449.56;;;21.08;57.47
44297;BME280;51842;47.450;8.654;2023-05-23T12:57:42;95463.78;;;21.05;60.71
44297;BME280;51842;47.450;8.654;2023-05-23T13:00:10;95473.34;;;20.90;60.44
44297;BME280;51842;47.450;8.654;2023-05-23T13:02:36;95476.84;;;20.91;63.45
44297;BME280;51842;47.450;8.654;2023-05-23T13:05:02;95473.66;;;20.89;63.81
44297;BME280;51842;47.450;8.654;2023-05-23T13:07:28;95474.47;;;20.47;64.31
44297;BME280;51842;47.450;8.654;2023-05-23T13:09:54;95471.94;;;20.42;68.12
44297;BME280;51842;47.450;8.654;2023-05-23T13:12:20;95473.47;;;20.31;65.96
44297;BME280;51842;47.450;8.654;2023-05-23T13:14:45;95477.41;;;20.33;67.64
44297;BME280;51842;47.450;8.654;2023-05-23T13:17:11;95475.44;;;20.43;66.12
44297;BME280;51842;47.450;8.654;2023-05-23T13:19:37;95474.22;;;20.40;66.51
44297;BME280;51842;47.450;8.654;2023-05-23T13:22:05;95471.22;;;20.33;65.31
44297;BME280;51842;47.450;8.654;2023-05-23T13:24:31;95468.44;;;20.42;66.57
44297;BME280;51842;47.450;8.654;2023-05-23T13:26:56;95473.97;;;20.54;67.51
44297;BME280;51842;47.450;8.654;2023-05-23T13:29:22;95465.97;;;20.58;65.33